Time;durP1;ratioP1;P1;durP2;ratioP2;P2;SDS_P1;SDS_P2;PMS_P1;PMS_P2;Temp;Humidity;BMP_temperature;BMP_pressure;BME280_temperature;BME280_humidity;BME280_pressure;Samples;Min_cycle;Max_cycle;Signal;HPM_P1;HPM_P2
2022/10/19 00:01:20;;;;;;;;;;;15.50;99.90;;;;;;5088746;28;20374;-78
2022/10/19 00:03:49;;;;;;;;;;;15.50;99.90;;;;;;5071073;28;19932;-80
2022/10/19 00:06:17;;;;;;;;;;;15.50;99.90;;;;;;5081803;28;20333;-78
2022/10/19 00:08:44;;;;;;;;;;;15.50;99.90;;;;;;5083285;28;20355;-78
2022/10/19 00:11:11;;;;;;;;;;;15.40;99.90;;;;;;5079496;28;21167;-80
2022/10/19 00:13:38;;;;;;;;;;;15.40;99.90;;;;;;5075001;28;20737;-78
2022/10/19 00:16:08;;;;;;;;;;;15.40;99.90;;;;;;5086158;28;20036;-78
2022/10/19 00:18:35;;;;;;;;;;;15.40;99.90;;;;;;5080716;28;20463;-78
2022/10/19 00:21:04;;;;;;;;;;;15.40;99.90;;;;;;5078313;28;19932;-81
2022/10/19 00:23:30;;;;;;;;;;;15.40;99.90;;;;;;5084858;28;19924;-78
2022/10/19 00:25:57;;;;;;;;;;;15.40;99.90;;;;;;5084977;28;19939;-78
2022/10/19 00:28:24;;;;;;;;;;;15.30;99.90;;;;;;5077843;28;19984;-78
2022/10/19 00:30:51;;;;;;;;;;;15.30;99.90;;;;;;5073034;28;19946;-78
2022/10/19 00:33:20;;;;;;;;;;;15.30;99.90;;;;;;5079068;28;20279;-78
2022/10/19 00:35:48;;;;;;;;;;;15.30;99.90;;;;;;5074607;28;19936;-78
2022/10/19 00:38:17;;;;;;;;;;;15.30;99.90;;;;;;5076369;28;19924;-78
2022/10/19 00:40:44;;;;;;;;;;;15.20;99.90;;;;;;5081371;28;19959;-79
2022/10/19 00:43:13;;;;;;;;;;;15.20;99.90;;;;;;5083792;28;20314;-78
2022/10/19 00:45:40;;;;;;;;;;;15.20;99.90;;;;;;5083797;28;20084;-79
2022/10/19 00:48:08;;;;;;;;;;;15.20;99.90;;;;;;5080228;28;20390;-78
2022/10/19 00:50:35;;;;;;;;;;;15.20;99.90;;;;;;5076879;28;19977;-77
2022/10/19 00:53:02;;;;;;;;;;;15.20;99.90;;;;;;5079577;28;19924;-78
2022/10/19 00:55:30;;;;;;;;;;;15.20;99.90;;;;;;5084096;28;20389;-79
2022/10/19 00:57:57;;;;;;;;;;;15.20;99.90;;;;;;5080190;28;19993;-79
2022/10/19 01:00:24;;;;;;;;;;;15.10;99.90;;;;;;5080679;28;19970;-78
2022/10/19 01:02:50;;;;;;;;;;;15.10;99.90;;;;;;5078142;28;19927;-79
2022/10/19 01:05:18;;;;;;;;;;;15.10;99.90;;;;;;5080514;28;19928;-79
2022/10/19 01:07:44;;;;;;;;;;;15.10;99.90;;;;;;5077368;28;20027;-79
2022/10/19 01:10:12;;;;;;;;;;;15.10;99.90;;;;;;5081034;28;19924;-79
2022/10/19 01:12:51;;;;;;;;;;;15.10;99.90;;;;;;5080178;28;19925;-78
2022/10/19 01:15:24;;;;;;;;;;;15.10;99.90;;;;;;5074037;28;20046;-78
2022/10/19 01:17:56;;;;;;;;;;;15.00;99.90;;;;;;5076971;28;19990;-80
2022/10/19 01:20:50;;;;;;;;;;;15.00;99.90;;;;;;5080094;28;20658;-78
2022/10/19 01:23:29;;;;;;;;;;;15.00;99.90;;;;;;5078674;28;20014;-79
2022/10/19 01:26:02;;;;;;;;;;;15.00;99.90;;;;;;5083653;28;19981;-78
2022/10/19 01:28:39;;;;;;;;;;;15.00;99.90;;;;;;5080936;28;19967;-81
2022/10/19 01:31:12;;;;;;;;;;;15.00;99.90;;;;;;5072744;28;19924;-77
2022/10/19 01:33:42;;;;;;;;;;;15.00;99.90;;;;;;5084658;28;19930;-81
2022/10/19 01:36:13;;;;;;;;;;;15.00;99.90;;;;;;5080404;28;19998;-80
2022/10/19 01:38:44;;;;;;;;;;;15.00;99.90;;;;;;5082629;28;20007;-78
2022/10/19 01:41:14;;;;;;;;;;;14.90;99.90;;;;;;5080237;28;20014;-78
2022/10/19 01:43:43;;;;;;;;;;;14.90;99.90;;;;;;5080673;28;20019;-78
2022/10/19 01:46:13;;;;;;;;;;;14.90;99.90;;;;;;5082015;28;20006;-79
2022/10/19 01:48:41;;;;;;;;;;;14.90;99.90;;;;;;5079182;28;20010;-79
2022/10/19 01:51:10;;;;;;;;;;;14.90;99.90;;;;;;5084524;28;20413;-78
2022/10/19 01:53:40;;;;;;;;;;;14.90;99.90;;;;;;5083308;28;19924;-78
2022/10/19 01:56:08;;;;;;;;;;;14.80;99.90;;;;;;5082902;28;19924;-79
2022/10/19 01:58:36;;;;;;;;;;;14.80;99.90;;;;;;5081289;28;19924;-78
2022/10/19 02:01:05;;;;;;;;;;;14.80;99.90;;;;;;5097284;28;20037;-79
2022/10/19 02:03:33;;;;;;;;;;;14.80;99.90;;;;;;5084182;28;19955;-78
2022/10/19 02:06:04;;;;;;;;;;;14.80;99.90;;;;;;5079427;28;19924;-79
2022/10/19 02:08:31;;;;;;;;;;;14.80;99.90;;;;;;5085981;28;19968;-81
2022/10/19 02:10:59;;;;;;;;;;;14.80;99.90;;;;;;5081819;28;19924;-80
2022/10/19 02:13:26;;;;;;;;;;;14.80;99.90;;;;;;5077409;28;19924;-79
2022/10/19 02:15:55;;;;;;;;;;;14.70;99.90;;;;;;5073559;28;19939;-78
2022/10/19 02:18:25;;;;;;;;;;;14.70;99.90;;;;;;5073940;28;20359;-78
2022/10/19 02:20:53;;;;;;;;;;;14.70;99.90;;;;;;5082103;28;20426;-78
2022/10/19 02:23:22;;;;;;;;;;;14.70;99.90;;;;;;5087105;28;19931;-78
2022/10/19 02:25:48;;;;;;;;;;;14.70;99.90;;;;;;5080611;28;19932;-78
2022/10/19 02:28:15;;;;;;;;;;;14.70;99.90;;;;;;5078278;28;19956;-78
2022/10/19 02:30:42;;;;;;;;;;;14.70;99.90;;;;;;5080561;28;19992;-78
2022/10/19 02:33:11;;;;;;;;;;;14.70;99.90;;;;;;5080575;28;19990;-78
2022/10/19 02:35:38;;;;;;;;;;;14.70;99.90;;;;;;5082399;28;19971;-80
2022/10/19 02:38:07;;;;;;;;;;;14.60;99.90;;;;;;5076206;28;19955;-81
2022/10/19 02:40:37;;;;;;;;;;;14.60;99.90;;;;;;5075574;28;19924;-79
2022/10/19 02:43:06;;;;;;;;;;;14.60;99.90;;;;;;5072225;28;19924;-80
2022/10/19 02:45:38;;;;;;;;;;;14.60;99.90;;;;;;5078798;28;19924;-81
2022/10/19 02:48:05;;;;;;;;;;;14.60;99.90;;;;;;5082105;28;20432;-80
2022/10/19 02:50:32;;;;;;;;;;;14.60;99.90;;;;;;5078785;28;19925;-78
2022/10/19 02:52:59;;;;;;;;;;;14.60;99.90;;;;;;5094183;27;20629;-78
2022/10/19 02:55:28;;;;;;;;;;;14.60;99.90;;;;;;5082181;28;19925;-78
2022/10/19 02:57:56;;;;;;;;;;;14.60;99.90;;;;;;5080904;28;19932;-78
2022/10/19 03:00:23;;;;;;;;;;;14.50;99.90;;;;;;5081316;28;20396;-78
2022/10/19 03:02:49;;;;;;;;;;;14.50;99.90;;;;;;5078280;28;20011;-79
2022/10/19 03:05:16;;;;;;;;;;;14.50;99.90;;;;;;5081936;28;20015;-78
2022/10/19 03:07:43;;;;;;;;;;;14.50;99.90;;;;;;5081874;28;19924;-78
2022/10/19 03:10:12;;;;;;;;;;;14.50;99.90;;;;;;5073632;28;19931;-79
2022/10/19 03:12:40;;;;;;;;;;;14.50;99.90;;;;;;5079727;28;19924;-78
2022/10/19 03:15:08;;;;;;;;;;;14.50;99.90;;;;;;5073538;28;19931;-79
2022/10/19 03:17:34;;;;;;;;;;;14.50;99.90;;;;;;5080113;28;20700;-81
2022/10/19 03:20:01;;;;;;;;;;;14.50;99.90;;;;;;5080875;28;20007;-78
2022/10/19 03:22:28;;;;;;;;;;;14.40;99.90;;;;;;5072912;28;19930;-80
2022/10/19 03:24:55;;;;;;;;;;;14.40;99.90;;;;;;5074909;28;20287;-76
2022/10/19 03:27:22;;;;;;;;;;;14.40;99.90;;;;;;5077388;28;20394;-78
2022/10/19 03:29:50;;;;;;;;;;;14.40;99.90;;;;;;5077638;28;19935;-80
2022/10/19 03:32:17;;;;;;;;;;;14.40;99.90;;;;;;5075215;28;19931;-79
2022/10/19 03:34:44;;;;;;;;;;;14.40;99.90;;;;;;5079318;28;19924;-78
2022/10/19 03:37:12;;;;;;;;;;;14.40;99.90;;;;;;5078345;28;19970;-77
2022/10/19 03:39:39;;;;;;;;;;;14.40;99.90;;;;;;5087840;28;20291;-79
2022/10/19 03:42:05;;;;;;;;;;;14.40;99.90;;;;;;5079670;28;20386;-78
2022/10/19 03:44:32;;;;;;;;;;;14.30;99.90;;;;;;5076261;28;20621;-77
2022/10/19 03:47:00;;;;;;;;;;;14.40;99.90;;;;;;5080237;28;20047;-78
2022/10/19 03:49:27;;;;;;;;;;;14.30;99.90;;;;;;5078761;28;19956;-78
2022/10/19 03:51:54;;;;;;;;;;;14.30;99.90;;;;;;5072717;28;19951;-78
2022/10/19 03:54:21;;;;;;;;;;;14.30;99.90;;;;;;5089063;28;20010;-83
2022/10/19 03:56:47;;;;;;;;;;;14.30;99.90;;;;;;5082349;28;19967;-79
2022/10/19 03:59:14;;;;;;;;;;;14.30;99.90;;;;;;5073116;28;19925;-78
2022/10/19 04:01:42;;;;;;;;;;;14.30;99.90;;;;;;5082659;28;19977;-80
2022/10/19 04:04:12;;;;;;;;;;;14.30;99.90;;;;;;5076811;28;19943;-79
2022/10/19 04:06:42;;;;;;;;;;;14.30;99.90;;;;;;5076894;28;19928;-79
2022/10/19 04:09:11;;;;;;;;;;;14.30;99.90;;;;;;5078281;28;20019;-81
2022/10/19 04:11:38;;;;;;;;;;;14.30;99.90;;;;;;5075436;28;19924;-81
2022/10/19 04:14:05;;;;;;;;;;;14.30;99.90;;;;;;5080950;28;20019;-80
2022/10/19 04:16:32;;;;;;;;;;;14.30;99.90;;;;;;5082169;28;19963;-81
2022/10/19 04:18:59;;;;;;;;;;;14.30;99.90;;;;;;5078867;28;20555;-78
2022/10/19 04:21:29;;;;;;;;;;;14.30;99.90;;;;;;5078107;28;19924;-78
2022/10/19 04:23:57;;;;;;;;;;;14.20;99.90;;;;;;5081926;28;20014;-81
2022/10/19 04:26:24;;;;;;;;;;;14.20;99.90;;;;;;5094381;28;20431;-78
2022/10/19 04:28:51;;;;;;;;;;;14.20;99.90;;;;;;5089428;28;19959;-78
2022/10/19 04:31:18;;;;;;;;;;;14.20;99.90;;;;;;5077537;28;19928;-80
2022/10/19 04:33:45;;;;;;;;;;;14.20;99.90;;;;;;5085088;28;20350;-76
2022/10/19 04:36:12;;;;;;;;;;;14.20;99.90;;;;;;5079986;28;20026;-76
2022/10/19 04:38:40;;;;;;;;;;;14.20;99.90;;;;;;5073314;28;20293;-80
2022/10/19 04:41:08;;;;;;;;;;;14.20;99.90;;;;;;5082687;28;19968;-78
2022/10/19 04:43:35;;;;;;;;;;;14.20;99.90;;;;;;5068455;28;19948;-77
2022/10/19 04:46:03;;;;;;;;;;;14.20;99.90;;;;;;5077592;28;19975;-75
2022/10/19 04:48:30;;;;;;;;;;;14.20;99.90;;;;;;5078152;28;19928;-81
2022/10/19 04:50:57;;;;;;;;;;;14.20;99.90;;;;;;5077410;28;19928;-72
2022/10/19 04:53:24;;;;;;;;;;;14.20;99.90;;;;;;5078561;28;19963;-75
2022/10/19 04:55:52;;;;;;;;;;;14.20;99.90;;;;;;5078294;28;19934;-74
2022/10/19 04:58:18;;;;;;;;;;;14.20;99.90;;;;;;5086309;28;20290;-77
2022/10/19 05:00:45;;;;;;;;;;;14.20;99.90;;;;;;5081313;28;19939;-79
2022/10/19 05:03:12;;;;;;;;;;;14.20;99.90;;;;;;5084037;28;20031;-75
2022/10/19 05:05:39;;;;;;;;;;;14.20;99.90;;;;;;5077105;28;20419;-84
2022/10/19 05:08:06;;;;;;;;;;;14.20;99.90;;;;;;5075726;28;19963;-86
2022/10/19 05:10:33;;;;;;;;;;;14.20;99.90;;;;;;5075703;28;19932;-74
2022/10/19 05:13:01;;;;;;;;;;;14.20;99.90;;;;;;5076212;28;19959;-75
2022/10/19 05:15:28;;;;;;;;;;;14.10;99.90;;;;;;5078571;28;20301;-79
2022/10/19 05:17:55;;;;;;;;;;;14.10;99.90;;;;;;5074833;28;19932;-76
2022/10/19 05:20:22;;;;;;;;;;;14.10;99.90;;;;;;5082310;28;20341;-73
2022/10/19 05:22:49;;;;;;;;;;;14.10;99.90;;;;;;5087391;28;20332;-78
2022/10/19 05:25:16;;;;;;;;;;;14.10;99.90;;;;;;5089705;28;19932;-75
2022/10/19 05:27:43;;;;;;;;;;;14.10;99.90;;;;;;5080211;28;20177;-76
2022/10/19 05:30:13;;;;;;;;;;;14.10;99.90;;;;;;5089223;28;19924;-75
2022/10/19 05:32:41;;;;;;;;;;;14.10;99.90;;;;;;5042356;28;19981;-75
2022/10/19 05:35:11;;;;;;;;;;;14.10;99.90;;;;;;5081738;28;19958;-75
2022/10/19 05:37:37;;;;;;;;;;;14.10;99.90;;;;;;5082149;28;19931;-78
2022/10/19 05:40:05;;;;;;;;;;;14.10;99.90;;;;;;5080711;28;19977;-78
2022/10/19 05:42:32;;;;;;;;;;;14.00;99.90;;;;;;5082117;28;19966;-82
2022/10/19 05:44:58;;;;;;;;;;;14.10;99.90;;;;;;5081543;28;19978;-78
2022/10/19 05:47:26;;;;;;;;;;;14.10;99.90;;;;;;5083170;28;19931;-82
2022/10/19 05:49:53;;;;;;;;;;;14.10;99.90;;;;;;5080374;28;20374;-78
2022/10/19 05:52:20;;;;;;;;;;;14.10;99.90;;;;;;5080341;28;19971;-78
2022/10/19 05:54:47;;;;;;;;;;;14.10;99.90;;;;;;5086320;28;20020;-83
2022/10/19 05:57:13;;;;;;;;;;;14.10;99.90;;;;;;5097655;28;19931;-78
2022/10/19 05:59:40;;;;;;;;;;;14.10;99.90;;;;;;5101330;27;20015;-78
2022/10/19 06:02:12;;;;;;;;;;;14.10;99.90;;;;;;5083378;28;21110;-79
2022/10/19 06:04:40;;;;;;;;;;;14.10;99.90;;;;;;5084635;28;19924;-77
2022/10/19 06:07:07;;;;;;;;;;;14.10;99.90;;;;;;5082098;28;19923;-78
2022/10/19 06:09:35;;;;;;;;;;;14.10;99.90;;;;;;5087760;28;20352;-82
2022/10/19 06:12:02;;;;;;;;;;;14.10;99.90;;;;;;5080239;28;20619;-78
2022/10/19 06:14:29;;;;;;;;;;;14.10;99.90;;;;;;5077777;28;20370;-78
2022/10/19 06:16:56;;;;;;;;;;;14.10;99.90;;;;;;5085523;28;20594;-78
2022/10/19 06:19:23;;;;;;;;;;;14.00;99.90;;;;;;5090015;28;19924;-78
2022/10/19 06:21:51;;;;;;;;;;;14.10;99.90;;;;;;5084913;28;19924;-78
2022/10/19 06:24:17;;;;;;;;;;;14.00;99.90;;;;;;5085816;28;19928;-78
2022/10/19 06:26:44;;;;;;;;;;;14.10;99.90;;;;;;5082430;28;19928;-80
2022/10/19 06:29:11;;;;;;;;;;;14.00;99.90;;;;;;5095260;28;19928;-78
2022/10/19 06:31:38;;;;;;;;;;;14.00;99.90;;;;;;5081784;28;19947;-79
2022/10/19 06:34:05;;;;;;;;;;;14.00;99.90;;;;;;5089036;28;19946;-80
2022/10/19 06:36:32;;;;;;;;;;;14.00;99.90;;;;;;5087756;28;19934;-78
2022/10/19 06:39:01;;;;;;;;;;;14.00;99.90;;;;;;5082679;28;19935;-82
2022/10/19 06:41:28;;;;;;;;;;;14.00;99.90;;;;;;5078466;28;19925;-79
2022/10/19 06:43:55;;;;;;;;;;;14.00;99.90;;;;;;5081317;28;19928;-82
2022/10/19 06:46:23;;;;;;;;;;;14.00;99.90;;;;;;5090515;28;20019;-78
2022/10/19 06:48:51;;;;;;;;;;;14.00;99.90;;;;;;5078907;28;19967;-79
2022/10/19 06:51:18;;;;;;;;;;;14.00;99.90;;;;;;5082289;28;19947;-79
2022/10/19 06:53:45;;;;;;;;;;;14.10;99.90;;;;;;5084273;28;20023;-78
2022/10/19 06:56:13;;;;;;;;;;;14.00;99.90;;;;;;5091966;28;19934;-78
2022/10/19 06:58:40;;;;;;;;;;;14.00;99.90;;;;;;5086266;28;19953;-78
2022/10/19 07:01:08;;;;;;;;;;;14.00;99.90;;;;;;5081780;28;19923;-79
2022/10/19 07:03:35;;;;;;;;;;;14.00;99.90;;;;;;5089828;28;19923;-80
2022/10/19 07:06:03;;;;;;;;;;;14.00;99.90;;;;;;5087239;28;19927;-81
2022/10/19 07:08:30;;;;;;;;;;;14.00;99.90;;;;;;5093132;28;19934;-80
2022/10/19 07:10:58;;;;;;;;;;;14.00;99.90;;;;;;5089793;28;20018;-77
2022/10/19 07:13:26;;;;;;;;;;;14.00;99.90;;;;;;5087309;28;20015;-78
2022/10/19 07:15:57;;;;;;;;;;;14.00;99.90;;;;;;5080720;28;19959;-78
2022/10/19 07:18:23;;;;;;;;;;;14.00;99.90;;;;;;5087294;28;20018;-81
2022/10/19 07:20:54;;;;;;;;;;;14.10;99.90;;;;;;5083708;28;19964;-81
2022/10/19 07:23:21;;;;;;;;;;;14.00;99.90;;;;;;5089209;28;20010;-78
2022/10/19 07:25:47;;;;;;;;;;;14.00;99.90;;;;;;5092677;28;19924;-78
2022/10/19 07:28:14;;;;;;;;;;;14.00;99.90;;;;;;5082961;28;20046;-81
2022/10/19 07:30:42;;;;;;;;;;;14.00;99.90;;;;;;5080218;28;19931;-79
2022/10/19 07:33:09;;;;;;;;;;;14.00;99.90;;;;;;5088038;28;20007;-78
2022/10/19 07:35:36;;;;;;;;;;;14.00;99.90;;;;;;5086723;28;20007;-80
2022/10/19 07:38:03;;;;;;;;;;;14.00;99.90;;;;;;5078253;28;19960;-78
2022/10/19 07:40:30;;;;;;;;;;;14.00;99.90;;;;;;5076902;28;20027;-78
2022/10/19 07:42:57;;;;;;;;;;;14.10;99.90;;;;;;5085180;28;20359;-79
2022/10/19 07:45:24;;;;;;;;;;;14.00;99.90;;;;;;5084280;28;20019;-78
2022/10/19 07:47:52;;;;;;;;;;;14.10;99.90;;;;;;5086989;28;19943;-81
2022/10/19 07:50:19;;;;;;;;;;;14.10;99.90;;;;;;5086761;28;20016;-79
2022/10/19 07:52:46;;;;;;;;;;;14.10;99.90;;;;;;5083721;28;20366;-78
2022/10/19 07:55:12;;;;;;;;;;;14.10;99.90;;;;;;5084061;28;19994;-78
2022/10/19 07:57:39;;;;;;;;;;;14.10;99.90;;;;;;5080742;28;19956;-79
2022/10/19 08:00:07;;;;;;;;;;;14.10;99.90;;;;;;5084825;28;19978;-79
2022/10/19 08:02:38;;;;;;;;;;;14.10;99.90;;;;;;5085697;28;19928;-78
2022/10/19 08:05:07;;;;;;;;;;;14.10;99.90;;;;;;5078465;28;19928;-79
2022/10/19 08:07:34;;;;;;;;;;;14.10;99.90;;;;;;5074949;28;20280;-78
2022/10/19 08:10:01;;;;;;;;;;;14.10;99.90;;;;;;5087927;28;20416;-78
2022/10/19 08:12:28;;;;;;;;;;;14.10;99.90;;;;;;5084077;28;19954;-83
2022/10/19 08:14:55;;;;;;;;;;;14.10;99.90;;;;;;5079805;28;19924;-80
2022/10/19 08:17:21;;;;;;;;;;;14.10;99.90;;;;;;5081869;28;20394;-79
2022/10/19 08:19:48;;;;;;;;;;;14.10;99.90;;;;;;5088027;28;19928;-79
2022/10/19 08:22:16;;;;;;;;;;;14.10;99.90;;;;;;5086129;28;20028;-78
2022/10/19 08:24:43;;;;;;;;;;;14.10;99.90;;;;;;5090243;28;20473;-79
2022/10/19 08:27:10;;;;;;;;;;;14.10;99.90;;;;;;5091834;28;19963;-79
2022/10/19 08:29:37;;;;;;;;;;;14.10;99.90;;;;;;5090734;28;20008;-78
2022/10/19 08:32:04;;;;;;;;;;;14.10;99.90;;;;;;5085132;28;19932;-79
2022/10/19 08:34:32;;;;;;;;;;;14.10;99.90;;;;;;5087237;28;19959;-78
2022/10/19 08:37:00;;;;;;;;;;;14.10;99.90;;;;;;5081352;28;19929;-79
2022/10/19 08:39:29;;;;;;;;;;;14.10;99.90;;;;;;5089222;28;19946;-78
2022/10/19 08:41:59;;;;;;;;;;;14.10;99.90;;;;;;5087260;28;19934;-78
2022/10/19 08:44:47;;;;;;;;;;;14.10;99.90;;;;;;5083956;28;20615;-80
2022/10/19 08:47:20;;;;;;;;;;;14.10;99.90;;;;;;5084566;28;19959;-78
2022/10/19 08:49:47;;;;;;;;;;;14.10;99.90;;;;;;5081338;28;19962;-79
2022/10/19 08:52:17;;;;;;;;;;;14.10;99.90;;;;;;5085738;28;19928;-78
2022/10/19 08:54:48;;;;;;;;;;;14.10;99.90;;;;;;5090997;28;20372;-81
2022/10/19 08:57:20;;;;;;;;;;;14.10;99.90;;;;;;5081637;28;19928;-78
2022/10/19 08:59:51;;;;;;;;;;;14.10;99.90;;;;;;5088593;28;19975;-79
2022/10/19 09:02:20;;;;;;;;;;;14.10;99.90;;;;;;5087839;28;19924;-79
2022/10/19 09:04:49;;;;;;;;;;;14.10;99.90;;;;;;5085195;28;20317;-81
2022/10/19 09:07:22;;;;;;;;;;;14.10;99.90;;;;;;5084039;28;19932;-78
2022/10/19 09:09:51;;;;;;;;;;;14.10;99.90;;;;;;5087719;28;19974;-80
2022/10/19 09:12:20;;;;;;;;;;;14.10;99.90;;;;;;5082854;28;19924;-79
2022/10/19 09:14:53;;;;;;;;;;;14.10;99.90;;;;;;5088292;28;20438;-79
2022/10/19 09:17:20;;;;;;;;;;;14.10;99.90;;;;;;5071015;28;19924;-78
2022/10/19 09:19:47;;;;;;;;;;;14.10;99.90;;;;;;5085075;28;19924;-78
2022/10/19 09:22:18;;;;;;;;;;;14.20;99.90;;;;;;5088495;28;19924;-79
2022/10/19 09:24:49;;;;;;;;;;;14.20;99.90;;;;;;5106464;28;20337;-79
2022/10/19 09:27:20;;;;;;;;;;;14.20;99.90;;;;;;5080396;28;19959;-80
2022/10/19 09:29:49;;;;;;;;;;;14.20;99.90;;;;;;5082591;28;19924;-79
2022/10/19 09:32:18;;;;;;;;;;;14.20;99.90;;;;;;5084222;28;19932;-78
2022/10/19 09:34:46;;;;;;;;;;;14.20;99.90;;;;;;5086344;28;20330;-78
2022/10/19 09:37:13;;;;;;;;;;;14.20;99.90;;;;;;5073774;28;19955;-78
2022/10/19 09:39:39;;;;;;;;;;;14.20;99.90;;;;;;5090998;28;19924;-81
2022/10/19 09:42:10;;;;;;;;;;;14.20;99.90;;;;;;5084560;28;19950;-78
2022/10/19 09:44:38;;;;;;;;;;;14.20;99.90;;;;;;5085176;28;19924;-80
2022/10/19 09:47:14;;;;;;;;;;;14.20;99.90;;;;;;5082680;28;19924;-78
2022/10/19 09:49:42;;;;;;;;;;;14.20;99.90;;;;;;5084067;28;19924;-79
2022/10/19 09:52:23;;;;;;;;;;;14.20;99.90;;;;;;5091817;28;19928;-80
2022/10/19 09:54:51;;;;;;;;;;;14.20;99.90;;;;;;5087602;28;20026;-83
2022/10/19 09:57:20;;;;;;;;;;;14.20;99.90;;;;;;5089944;28;20019;-83
2022/10/19 09:59:51;;;;;;;;;;;14.20;99.90;;;;;;5088189;28;19939;-78
2022/10/19 10:02:18;;;;;;;;;;;14.20;99.90;;;;;;5087811;28;20031;-78
2022/10/19 10:04:45;;;;;;;;;;;14.20;99.90;;;;;;5078641;28;19928;-79
2022/10/19 10:07:15;;;;;;;;;;;14.20;99.90;;;;;;5081340;28;20493;-80
2022/10/19 10:09:42;;;;;;;;;;;14.20;99.90;;;;;;5086196;28;19931;-80
2022/10/19 10:12:12;;;;;;;;;;;14.30;99.90;;;;;;5087611;28;20036;-80
2022/10/19 10:14:39;;;;;;;;;;;14.30;99.90;;;;;;5082555;28;19924;-78
2022/10/19 10:17:13;;;;;;;;;;;14.30;99.90;;;;;;5093635;28;20435;-79
2022/10/19 10:19:49;;;;;;;;;;;14.30;99.90;;;;;;5089849;28;20026;-81
2022/10/19 10:22:23;;;;;;;;;;;14.30;99.90;;;;;;5085147;28;19963;-78
2022/10/19 10:24:51;;;;;;;;;;;14.30;99.90;;;;;;5089712;28;20018;-78
2022/10/19 10:27:25;;;;;;;;;;;14.30;99.90;;;;;;5087072;28;19933;-84
2022/10/19 10:29:54;;;;;;;;;;;14.30;99.90;;;;;;5083749;28;20077;-79
2022/10/19 10:32:23;;;;;;;;;;;14.30;99.90;;;;;;5086468;28;19928;-78
2022/10/19 10:34:56;;;;;;;;;;;14.30;99.90;;;;;;5079097;28;19924;-78
2022/10/19 10:37:24;;;;;;;;;;;14.30;99.90;;;;;;5083773;28;19928;-81
2022/10/19 10:39:52;;;;;;;;;;;14.30;99.90;;;;;;5082923;28;20358;-81
2022/10/19 10:42:22;;;;;;;;;;;14.40;99.90;;;;;;5083479;28;19924;-80
2022/10/19 10:44:50;;;;;;;;;;;14.30;99.90;;;;;;5086213;28;20006;-79
2022/10/19 10:47:19;;;;;;;;;;;14.30;99.90;;;;;;5081113;28;19963;-80
2022/10/19 10:49:54;;;;;;;;;;;14.30;99.90;;;;;;5081023;28;20371;-78
2022/10/19 10:52:21;;;;;;;;;;;14.30;99.90;;;;;;5087972;28;20087;-79
2022/10/19 10:54:58;;;;;;;;;;;14.30;99.90;;;;;;5088711;28;19930;-79
2022/10/19 10:57:27;;;;;;;;;;;14.30;99.90;;;;;;5082062;28;20124;-77
2022/10/19 10:59:55;;;;;;;;;;;14.30;99.90;;;;;;5088039;28;19963;-82
2022/10/19 11:02:26;;;;;;;;;;;14.30;99.90;;;;;;5083544;28;20015;-80
2022/10/19 11:04:58;;;;;;;;;;;14.30;99.90;;;;;;5082151;28;19959;-77
2022/10/19 11:07:26;;;;;;;;;;;14.40;99.90;;;;;;5085482;28;20451;-79
2022/10/19 11:09:54;;;;;;;;;;;14.30;99.90;;;;;;5087108;28;19928;-80
2022/10/19 11:12:28;;;;;;;;;;;14.30;99.90;;;;;;5077675;28;19932;-80
2022/10/19 11:15:01;;;;;;;;;;;14.40;99.90;;;;;;5083669;28;20306;-81
2022/10/19 11:17:29;;;;;;;;;;;14.40;99.90;;;;;;5087135;28;20602;-79
2022/10/19 11:19:58;;;;;;;;;;;14.40;99.90;;;;;;5084755;28;20011;-80
2022/10/19 11:22:28;;;;;;;;;;;14.40;99.90;;;;;;5081915;28;20295;-79
2022/10/19 11:25:00;;;;;;;;;;;14.40;99.90;;;;;;5085376;28;19932;-82
2022/10/19 11:27:33;;;;;;;;;;;14.40;99.90;;;;;;5084261;28;19924;-79
2022/10/19 11:30:04;;;;;;;;;;;14.40;99.90;;;;;;5083915;28;19924;-83
2022/10/19 11:32:35;;;;;;;;;;;14.40;99.90;;;;;;5083352;28;20025;-78
2022/10/19 11:35:11;;;;;;;;;;;14.40;99.90;;;;;;5077499;28;19931;-79
2022/10/19 11:37:44;;;;;;;;;;;14.40;99.90;;;;;;5085913;28;19936;-79
2022/10/19 11:40:17;;;;;;;;;;;14.40;99.90;;;;;;5084486;28;19963;-83
2022/10/19 11:42:48;;;;;;;;;;;14.50;99.90;;;;;;5085141;28;20413;-80
2022/10/19 11:45:19;;;;;;;;;;;14.50;99.90;;;;;;5084950;28;20022;-80
2022/10/19 11:47:52;;;;;;;;;;;14.50;99.90;;;;;;5087001;28;19985;-82
2022/10/19 11:50:29;;;;;;;;;;;14.50;99.90;;;;;;5082744;28;20378;-81
2022/10/19 11:53:00;;;;;;;;;;;14.50;99.90;;;;;;5087269;28;19928;-79
2022/10/19 11:55:33;;;;;;;;;;;14.50;99.90;;;;;;5085344;28;20012;-78
2022/10/19 11:58:05;;;;;;;;;;;14.50;99.90;;;;;;5087887;28;20014;-78
2022/10/19 12:00:35;;;;;;;;;;;14.50;99.90;;;;;;5084413;28;19924;-77
2022/10/19 12:03:11;;;;;;;;;;;14.50;99.90;;;;;;5083337;28;19928;-79
2022/10/19 12:05:43;;;;;;;;;;;14.50;99.90;;;;;;5079960;28;20006;-77
2022/10/19 12:08:18;;;;;;;;;;;14.50;99.90;;;;;;5084811;28;19936;-76
2022/10/19 12:10:47;;;;;;;;;;;14.50;99.90;;;;;;5081453;28;19928;-80
2022/10/19 12:13:16;;;;;;;;;;;14.50;99.90;;;;;;5081741;28;19931;-79
2022/10/19 12:15:44;;;;;;;;;;;14.50;99.90;;;;;;5088001;28;19963;-78
2022/10/19 12:18:15;;;;;;;;;;;14.50;99.90;;;;;;5079913;28;19977;-76
2022/10/19 12:20:47;;;;;;;;;;;14.50;99.90;;;;;;5081424;28;19977;-77
2022/10/19 12:23:21;;;;;;;;;;;14.50;99.90;;;;;;5068411;28;19928;-80
2022/10/19 12:25:49;;;;;;;;;;;14.50;99.90;;;;;;5100178;27;20141;-76
2022/10/19 12:28:21;;;;;;;;;;;14.50;99.90;;;;;;5081562;28;19925;-81
2022/10/19 12:30:48;;;;;;;;;;;14.50;99.90;;;;;;5077082;28;19924;-79
2022/10/19 12:33:18;;;;;;;;;;;14.50;99.90;;;;;;5081943;28;19924;-78
2022/10/19 12:35:53;;;;;;;;;;;14.50;99.90;;;;;;5080564;28;20022;-78
2022/10/19 12:38:21;;;;;;;;;;;14.50;99.90;;;;;;5074051;28;21250;-78
2022/10/19 12:40:51;;;;;;;;;;;14.50;99.90;;;;;;5071384;28;20010;-79
2022/10/19 12:43:20;;;;;;;;;;;14.50;99.90;;;;;;5075433;28;20314;-80
2022/10/19 12:45:49;;;;;;;;;;;14.50;99.90;;;;;;5079677;28;20956;-78
2022/10/19 12:48:31;;;;;;;;;;;14.50;99.90;;;;;;5056119;28;20444;-82
2022/10/19 12:51:01;;;;;;;;;;;14.50;99.90;;;;;;5073236;28;19924;-79
2022/10/19 12:53:29;;;;;;;;;;;14.50;99.90;;;;;;5078609;28;20211;-78
2022/10/19 12:56:00;;;;;;;;;;;14.50;99.90;;;;;;5080285;28;19928;-77
2022/10/19 12:58:30;;;;;;;;;;;14.50;99.90;;;;;;5080974;28;19977;-87
2022/10/19 13:00:57;;;;;;;;;;;14.50;99.90;;;;;;5089695;28;20425;-84
2022/10/19 13:03:27;;;;;;;;;;;14.50;99.90;;;;;;5079167;28;19928;-77
2022/10/19 13:05:57;;;;;;;;;;;14.50;99.90;;;;;;5071768;28;19935;-77
2022/10/19 13:08:27;;;;;;;;;;;14.60;99.90;;;;;;5074676;28;20030;-77
2022/10/19 13:11:03;;;;;;;;;;;14.60;99.90;;;;;;5091966;28;19932;-77
2022/10/19 13:13:49;;;;;;;;;;;14.60;99.90;;;;;;5088756;28;19947;-79
2022/10/19 13:16:46;;;;;;;;;;;14.60;99.90;;;;;;5079760;28;20356;-77
2022/10/19 13:19:20;;;;;;;;;;;14.60;99.90;;;;;;5024172;28;20690;-77
2022/10/19 13:21:48;;;;;;;;;;;14.60;99.90;;;;;;5063206;28;19931;-78
2022/10/19 13:24:33;;;;;;;;;;;14.60;99.90;;;;;;5087373;28;20383;-79
2022/10/19 13:27:19;;;;;;;;;;;14.50;99.90;;;;;;5095350;28;19970;-77
2022/10/19 13:29:45;;;;;;;;;;;14.60;99.90;;;;;;5091331;28;20007;-77
2022/10/19 13:32:45;;;;;;;;;;;14.60;99.90;;;;;;5085586;28;20363;-77
2022/10/19 13:35:30;;;;;;;;;;;14.60;99.90;;;;;;5014666;28;19971;-78
2022/10/19 13:38:15;;;;;;;;;;;14.60;99.90;;;;;;5032205;28;19972;-79
2022/10/19 13:40:56;;;;;;;;;;;14.60;99.90;;;;;;5066869;28;19924;-77
2022/10/19 13:43:24;;;;;;;;;;;14.60;99.90;;;;;;5088802;28;20230;-78
2022/10/19 13:45:53;;;;;;;;;;;14.60;99.90;;;;;;5096084;28;19924;-78
2022/10/19 13:48:24;;;;;;;;;;;14.60;99.90;;;;;;5081045;28;19928;-78
2022/10/19 13:50:54;;;;;;;;;;;14.60;99.90;;;;;;5081185;28;19924;-77
2022/10/19 13:53:29;;;;;;;;;;;14.60;99.90;;;;;;5087809;28;19934;-77
2022/10/19 13:56:08;;;;;;;;;;;14.60;99.90;;;;;;5086576;28;20298;-79
2022/10/19 13:58:46;;;;;;;;;;;14.60;99.90;;;;;;5082376;28;19931;-77
2022/10/19 14:01:19;;;;;;;;;;;14.60;99.90;;;;;;5089544;28;19924;-77
2022/10/19 14:03:53;;;;;;;;;;;14.70;99.90;;;;;;5086556;28;20438;-78
2022/10/19 14:06:24;;;;;;;;;;;14.70;99.90;;;;;;5083836;28;20383;-78
2022/10/19 14:09:09;;;;;;;;;;;14.70;99.90;;;;;;5084551;28;19924;-77
2022/10/19 14:11:38;;;;;;;;;;;14.70;99.90;;;;;;5090563;28;19931;-77
2022/10/19 14:14:15;;;;;;;;;;;14.70;99.90;;;;;;5088051;28;20401;-78
2022/10/19 14:16:46;;;;;;;;;;;14.70;99.90;;;;;;5082736;28;21589;-76
2022/10/19 14:19:13;;;;;;;;;;;14.70;99.90;;;;;;5099226;28;19985;-78
2022/10/19 14:21:40;;;;;;;;;;;14.70;99.90;;;;;;5097405;28;19930;-77
2022/10/19 14:24:19;;;;;;;;;;;14.70;99.90;;;;;;5087789;28;19931;-77
2022/10/19 14:26:47;;;;;;;;;;;14.70;99.90;;;;;;5084159;28;19924;-77
2022/10/19 14:29:14;;;;;;;;;;;14.70;99.90;;;;;;5090192;28;19924;-77